x

Southeast Bering Sea -205nm Wnw Of Dutch Harbor, Ak (46073) Wave Buoy

2:50pm - Sun 13th Jul 2014 All times are UTC.

  • Sig Wave height 5.2ft
  • Swell Direction
  • Peak Period 7s
  • Average Period 5s
  • Wind
    18mph, 20mph gusts
  • Sea Temp 49°f
  • Air Temp 49°f
  • Sea Pressure 1012.5mb

More Historic Weather Station data

Upgrade to MSW Pro to gain access to the past 30 days of data for over 8000 Wavebouys and Weather Stations around the globe.

Join Pro

Comparision Forecast

View Surf forecast
   
Sun 07/13 2:50pm 5ft 7s 5s 18 20 mph 1012.5mb 49f 49f
1:50pm 5ft 7s 5s 18 22 mph 1012.1mb 49f 49f
12:50pm 4.5ft 7s 5s 16 18 mph 1011.8mb 49f 49f
11:50am 5.5ft 7s 5s 16 18 mph 1011.5mb 49f 49f
10:50am 5.5ft 7s 6s 16 20 mph 1010.9mb 49f 49f
9:50am 6ft 7s 6s 16 20 mph 1010.5mb 49f 49f
8:50am 6ft 7s 5s 18 22 mph 1009.9mb 49f 49f
7:50am 6ft 7s 5s 20 25 mph 1009.2mb 49f 49f
6:50am 6.5ft 7s 5s 20 22 mph 1008.7mb 49f 49f
5:50am 6ft 7s 5s 20 25 mph 1008.6mb 49f 48f
4:50am 6ft 7s 5s 22 27 mph 1008.3mb 49f 48f
3:50am 6.5ft 7s 5s 22 27 mph 1008.2mb 49f 48f
2:50am 7ft 7s 6s 22 27 mph 1008.4mb 49f 48f
1:50am 6ft 6s 5s 20 25 mph 1008.6mb 49f 48f
12:50am 6ft 7s 5s 22 27 mph 1008.6mb 49f 49f
Sat 07/12 11:50pm 6ft 7s 5s 22 27 mph 1008.6mb 49f 48f
10:50pm 6ft 6s 5s 22 25 mph 1008.5mb 49f 49f
9:50pm 6ft 7s 6s 20 25 mph 1008.6mb 49f 49f
8:50pm 6ft 7s 5s 20 25 mph 1008.8mb 49f 49f
7:50pm 6ft 7s 5s 20 25 mph 1008.6mb 49f 49f
6:50pm 5.5ft 6s 5s 20 22 mph 1008.6mb 48f 49f
5:50pm 6ft 6s 5s 20 22 mph 1008.9mb 48f 49f
4:50pm 5.5ft 6s 5s 20 25 mph 1008.8mb 48f 48f
3:50pm 5.5ft 7s 5s 20 27 mph 1008.9mb 48f 48f
2:50pm 5.5ft 7s 5s 22 27 mph 1009mb 48f 47f
1:50pm 5ft 7s 5s 22 27 mph 1009.2mb 48f 47f
12:50pm 4.5ft 7s 5s 20 25 mph 1009.7mb 48f 47f
11:50am 4.5ft 6s 5s 22 25 mph 1010.3mb 48f 46f
10:50am 4.5ft 7s 5s 20 25 mph 1011mb 49f 46f
9:50am 4.5ft 7s 5s 20 25 mph 1011.5mb 49f 46f
8:50am 4.5ft 6s 5s 18 25 mph 1012mb 49f 46f
7:50am 4.5ft 8s 5s 16 18 mph 1011.9mb 49f 46f
6:50am 4.5ft 7s 5s 16 20 mph 1012.2mb 49f 47f
5:50am 4.5ft 8s 5s 16 20 mph 1012.1mb 49f 47f
4:50am 4.5ft 7s 5s 13 16 mph 1012.3mb 49f 48f
3:50am 5ft 8s 6s 13 18 mph 1012.3mb 49f 48f
2:50am 5ft 7s 5s 16 20 mph 1012.4mb 49f 48f
1:50am 5ft 8s 6s 11 16 mph 1012.5mb 49f 48f
12:50am 5.5ft 8s 6s 13 16 mph 1012.6mb 49f 48f
Fri 07/11 11:50pm 5ft 8s 6s 16 18 mph 1012.6mb 49f 47f
10:50pm 5.5ft 8s 6s 13 18 mph 1012.6mb 48f 47f
9:50pm 6ft 8s 6s 16 20 mph 1012.3mb 48f 47f
8:50pm 6ft 7s 6s 16 18 mph 1012.2mb 48f 47f
7:50pm 6ft 8s 6s 16 20 mph 1012mb 48f 47f
6:50pm 6ft 7s 6s 18 22 mph 1011.4mb 48f 47f
5:50pm 6.5ft 8s 6s 18 22 mph 1011.3mb 48f 48f
4:50pm 7ft 8s 6s 20 22 mph 1010.9mb 48f 48f
3:50pm 7ft 7s 6s 20 25 mph 1010.7mb 48f 47f
2:50pm 7ft 8s 6s 20 25 mph 1010.5mb 48f 47f
1:50pm 6.5ft 8s 6s 18 22 mph 1010.3mb 48f 48f
12:50pm 7ft 8s 6s 20 25 mph 1010.2mb 48f 48f
11:50am 7ft 7s 6s 20 25 mph 1010.1mb 48f 48f
10:50am 7ft 7s 6s 22 27 mph 1009.8mb 49f 48f
9:50am 6.5ft 7s 5s 22 27 mph 1009.8mb 49f 48f
8:50am 6.5ft 6s 5s 22 25 mph 1010.1mb 49f 48f
7:50am 6.5ft 7s 5s 22 27 mph 1010.2mb 49f 48f
6:50am 5ft 6s 5s 22 29 mph 1010.1mb 49f 48f
5:50am 5ft 6s 5s 20 25 mph 1010.3mb 49f 48f
4:50am 5ft 6s 5s 22 25 mph 1010.7mb 49f 48f
3:50am 5ft 5s 5s 22 27 mph 1010.9mb 49f 48f
2:50am 5ft 5s 5s 22 27 mph 1011.1mb 50f 48f
1:50am 4.5ft 6s 5s 20 25 mph 1011.4mb 50f 49f
12:50am 4.5ft 7s 5s 20 22 mph 1011.3mb 50f 49f
Thu 07/10 11:50pm 4.5ft 7s 5s 18 20 mph 1011.6mb 50f 49f
10:50pm 4ft 7s 5s 18 20 mph 1011.7mb 50f 49f
9:50pm 3.5ft 7s 5s 16 20 mph 1011.9mb 50f 50f
8:50pm 3.5ft 8s 6s 13 16 mph 1012.1mb 50f 50f
7:50pm 3.5ft 7s 5s 11 13 mph 1011.8mb 50f 49f
6:50pm 4ft 8s 6s 9 11 mph 1011.7mb 50f 49f
5:50pm 4.5ft 8s 6s 9 11 mph 1011.6mb 50f 49f
4:50pm 4ft 7s 6s 9
mph
1011mb 50f 49f
3:50pm 4ft 6s 5s 13 16 mph 1010.6mb 50f 49f
2:50pm 3.5ft 6s 5s 13 16 mph 1010.6mb 50f 49f
1:50pm 3.5ft 6s 5s 11
mph
1010.7mb 49f 49f
12:50pm 3.5ft 5s 5s 9 11 mph 1010.7mb 49f 49f
11:50am 3.5ft 5s 5s 9 11 mph 1010.8mb 49f 49f
10:50am 3ft 5s 5s 9 11 mph 1010.8mb 49f 49f
9:50am 3ft 5s 5s 11 13 mph 1010.8mb 50f 49f
8:50am 3ft 8s 5s 9 11 mph 1011mb 50f 49f
7:50am 3ft 7s 5s 11 13 mph 1010.8mb 50f 49f
6:50am 3.5ft 8s 5s 11 13 mph 1010.7mb 50f 49f
5:50am 3.5ft 8s 5s 11 13 mph 1010.5mb 50f 49f
4:50am 3.5ft 8s 5s 13 16 mph 1010.5mb 50f 49f
3:50am 3.5ft 8s 5s 13
mph
1010.7mb 50f 49f
2:50am 3.5ft 8s 5s 11 13 mph 1010.8mb 50f 49f
1:50am 3.5ft 8s 6s 13 16 mph 1011mb 50f 49f
12:50am 3.5ft 8s 5s 11 13 mph 1011.2mb 50f 49f
Wed 07/09 11:50pm 2.5ft 8s 5s 11 13 mph 1011.3mb 50f 49f
10:50pm 2.5ft 7s 5s 11 16 mph 1011.4mb 50f 49f
9:50pm 2.5ft 7s 5s 11 13 mph 1011.4mb 50f 49f
8:50pm 2ft 7s 4s 9 11 mph 1011.4mb 50f 49f
7:50pm 1.6ft 3s 4s 11
mph
1011.1mb 50f 49f
6:50pm 1.6ft 3s 4s 7 11 mph 1011.2mb 50f 49f
5:50pm 1.6ft 14s 4s 11 13 mph 1010.9mb 50f 49f
4:50pm 1.3ft 14s 4s 11 13 mph 1010.8mb 50f 49f